createdAt,value
2019-03-06T00:01:25.886Z,2.50
2019-03-06T00:03:54.582Z,2.53
2019-03-06T00:06:23.653Z,2.57
2019-03-06T00:08:52.639Z,2.53
2019-03-06T00:11:21.343Z,2.60
2019-03-06T00:13:55.514Z,2.73
2019-03-06T00:16:24.383Z,2.50
2019-03-06T00:18:54.275Z,2.73
2019-03-06T00:21:28.981Z,2.30
2019-03-06T00:23:57.720Z,3.50
2019-03-06T00:26:28.002Z,3.20
2019-03-06T00:28:57.264Z,2.80
2019-03-06T00:31:29.805Z,2.60
2019-03-06T00:34:01.292Z,2.70
2019-03-06T00:36:30.235Z,2.50
2019-03-06T00:39:00.373Z,2.20
2019-03-06T00:41:30.651Z,2.80
2019-03-06T00:43:59.667Z,2.70
2019-03-06T00:46:28.427Z,2.47
2019-03-06T00:48:57.071Z,2.30
2019-03-06T00:51:25.766Z,2.40
2019-03-06T00:53:54.611Z,2.47
2019-03-06T00:56:23.541Z,2.47
2019-03-06T00:58:52.199Z,2.20
2019-03-06T01:01:20.927Z,2.20
2019-03-06T01:03:49.616Z,2.27
2019-03-06T01:06:18.249Z,2.50
2019-03-06T01:08:47.401Z,1.97
2019-03-06T01:11:16.103Z,2.07
2019-03-06T01:13:44.726Z,2.30
2019-03-06T01:16:13.483Z,1.90
2019-03-06T01:18:43.223Z,2.23
2019-03-06T01:21:12.319Z,2.30
2019-03-06T01:23:41.055Z,2.10
2019-03-06T01:26:09.753Z,2.00
2019-03-06T01:28:38.365Z,2.10
2019-03-06T01:31:07.117Z,2.13
2019-03-06T01:33:43.756Z,2.40
2019-03-06T01:36:16.839Z,2.60
2019-03-06T01:38:52.899Z,2.33
2019-03-06T01:41:25.592Z,2.60
2019-03-06T01:43:58.652Z,2.63
2019-03-06T01:46:27.349Z,2.30
2019-03-06T01:48:56.022Z,2.20
2019-03-06T01:51:24.666Z,3.13
2019-03-06T01:53:53.484Z,2.47
2019-03-06T01:56:23.875Z,3.00
2019-03-06T01:58:52.497Z,3.07
2019-03-06T02:01:21.134Z,3.20
2019-03-06T02:03:49.836Z,3.23
2019-03-06T02:06:18.866Z,3.63
2019-03-06T02:08:47.686Z,3.47
2019-03-06T02:11:16.846Z,4.27
2019-03-06T02:13:45.419Z,3.53
2019-03-06T02:16:14.115Z,3.50
2019-03-06T02:18:43.052Z,3.40
2019-03-06T02:21:11.756Z,4.00
2019-03-06T02:23:40.466Z,4.17
2019-03-06T02:26:09.195Z,3.97
2019-03-06T02:28:37.816Z,4.70
2019-03-06T02:31:07.017Z,4.17
2019-03-06T02:33:35.763Z,4.33
2019-03-06T02:36:04.840Z,4.23
2019-03-06T02:38:33.406Z,3.87
2019-03-06T02:41:02.148Z,4.73
2019-03-06T02:43:30.773Z,5.40
2019-03-06T02:45:59.396Z,5.13
2019-03-06T02:48:28.264Z,5.13
2019-03-06T02:50:56.909Z,5.50
2019-03-06T02:53:25.783Z,5.10
2019-03-06T02:55:54.723Z,5.83
2019-03-06T02:58:25.063Z,5.90
2019-03-06T03:01:05.034Z,6.90
2019-03-06T03:03:51.597Z,6.60
2019-03-06T03:06:21.964Z,7.47
2019-03-06T03:08:50.603Z,8.37
2019-03-06T03:11:19.230Z,7.87
2019-03-06T03:13:47.907Z,8.73
2019-03-06T03:16:16.476Z,8.50
2019-03-06T03:18:45.174Z,8.43
2019-03-06T03:21:13.908Z,8.47
2019-03-06T03:23:42.821Z,8.33
2019-03-06T03:26:11.442Z,8.60
2019-03-06T03:28:40.116Z,9.10
2019-03-06T03:31:09.246Z,9.03
2019-03-06T03:33:37.769Z,10.07
2019-03-06T03:36:06.521Z,9.90
2019-03-06T03:38:35.146Z,10.23
2019-03-06T03:41:03.778Z,10.07
2019-03-06T03:43:33.886Z,11.13
2019-03-06T03:46:02.524Z,12.40
2019-03-06T03:48:31.155Z,11.83
2019-03-06T03:50:59.759Z,11.97
2019-03-06T03:53:28.454Z,12.63
2019-03-06T03:55:57.105Z,12.47
2019-03-06T03:58:26.276Z,11.90
2019-03-06T04:00:55.118Z,10.77
2019-03-06T04:03:24.020Z,11.77
2019-03-06T04:05:52.685Z,12.67
2019-03-06T04:08:21.400Z,12.37
2019-03-06T04:10:50.504Z,14.37
2019-03-06T04:13:19.190Z,13.77
2019-03-06T04:15:47.988Z,13.83
2019-03-06T04:18:17.634Z,14.67
2019-03-06T04:20:46.544Z,14.70
2019-03-06T04:23:15.214Z,15.50
2019-03-06T04:25:51.954Z,14.60
2019-03-06T04:28:20.352Z,14.50
2019-03-06T04:30:50.546Z,16.57
2019-03-06T04:33:19.185Z,14.87
2019-03-06T04:35:47.931Z,14.80
2019-03-06T04:38:16.622Z,15.33
2019-03-06T04:40:45.218Z,15.53
2019-03-06T04:43:13.815Z,14.83
2019-03-06T04:45:42.437Z,15.23
2019-03-06T04:48:13.803Z,15.23
2019-03-06T04:50:42.467Z,16.57
2019-03-06T04:53:15.513Z,14.87
2019-03-06T04:55:44.143Z,15.80
2019-03-06T04:58:14.362Z,15.60
2019-03-06T05:00:42.993Z,16.60
2019-03-06T05:03:11.634Z,14.73
2019-03-06T05:05:43.507Z,14.87
2019-03-06T05:08:12.405Z,14.77
2019-03-06T05:10:47.257Z,14.27
2019-03-06T05:13:17.541Z,14.90
2019-03-06T05:15:46.253Z,14.30
2019-03-06T05:18:25.270Z,15.00
2019-03-06T05:20:53.973Z,14.57
2019-03-06T05:23:22.616Z,15.00
2019-03-06T05:25:51.223Z,16.27
2019-03-06T05:28:19.864Z,14.63
2019-03-06T05:30:48.434Z,14.97
2019-03-06T05:33:17.612Z,14.80
2019-03-06T05:36:10.113Z,14.77
2019-03-06T05:39:02.857Z,14.40
2019-03-06T05:41:31.441Z,14.13
2019-03-06T05:44:00.162Z,13.53
2019-03-06T05:46:28.756Z,13.53
2019-03-06T05:48:57.395Z,14.43
2019-03-06T05:51:27.359Z,13.13
2019-03-06T05:53:56.227Z,14.03
2019-03-06T05:56:27.927Z,14.33
2019-03-06T05:58:57.786Z,13.40
2019-03-06T06:01:26.457Z,14.30
2019-03-06T06:04:02.504Z,13.60
2019-03-06T06:06:31.160Z,14.17
2019-03-06T06:08:59.814Z,12.23
2019-03-06T06:11:28.380Z,12.43
2019-03-06T06:13:57.265Z,12.13
2019-03-06T06:16:25.988Z,13.90
2019-03-06T06:18:54.702Z,12.17
2019-03-06T06:21:28.090Z,11.90
2019-03-06T06:23:58.748Z,12.23
2019-03-06T06:26:30.404Z,11.93
2019-03-06T06:28:59.356Z,11.40
2019-03-06T06:31:43.731Z,12.63
2019-03-06T06:34:16.428Z,11.23
2019-03-06T06:36:45.212Z,10.77
2019-03-06T06:39:24.964Z,11.90
2019-03-06T06:41:53.610Z,11.80
2019-03-06T06:44:26.588Z,12.17
2019-03-06T06:46:55.344Z,12.27
2019-03-06T06:49:24.041Z,11.33
2019-03-06T06:52:03.955Z,12.47
2019-03-06T06:54:41.598Z,11.53
2019-03-06T06:57:35.678Z,10.50
2019-03-06T07:00:23.481Z,10.00
2019-03-06T07:03:22.380Z,10.03
2019-03-06T07:05:58.895Z,10.73
2019-03-06T07:08:31.865Z,10.30
2019-03-06T07:11:02.210Z,10.60
2019-03-06T07:13:35.421Z,9.57
2019-03-06T07:16:28.355Z,10.53
2019-03-06T07:19:12.526Z,10.97
2019-03-06T07:21:57.939Z,10.73
2019-03-06T07:24:43.837Z,9.83
2019-03-06T07:27:21.053Z,9.80
2019-03-06T07:29:51.404Z,10.30
2019-03-06T07:32:29.232Z,10.67
2019-03-06T07:35:51.094Z,10.90
2019-03-06T07:38:20.386Z,10.40
2019-03-06T07:41:06.799Z,10.27
2019-03-06T07:43:37.185Z,10.03
2019-03-06T07:46:25.607Z,9.37
2019-03-06T07:49:00.463Z,9.43
2019-03-06T07:51:31.987Z,9.00
2019-03-06T07:54:04.570Z,8.87
2019-03-06T07:56:35.350Z,9.80
2019-03-06T07:59:07.685Z,9.97
2019-03-06T08:01:39.599Z,9.43
2019-03-06T08:04:15.568Z,9.67
2019-03-06T08:06:52.034Z,9.47
2019-03-06T08:09:21.173Z,9.40
2019-03-06T08:12:00.924Z,9.97
2019-03-06T08:14:40.341Z,9.33
2019-03-06T08:17:30.385Z,9.93
2019-03-06T08:20:17.195Z,9.77
2019-03-06T08:22:56.830Z,9.77
2019-03-06T08:25:28.663Z,10.23
2019-03-06T08:27:57.384Z,10.23
2019-03-06T08:30:28.186Z,10.23
2019-03-06T08:32:56.877Z,10.53
2019-03-06T08:35:25.575Z,10.53
2019-03-06T08:37:55.835Z,9.77
2019-03-06T08:40:24.555Z,11.40
2019-03-06T08:42:53.185Z,10.83
2019-03-06T08:45:29.577Z,10.20
2019-03-06T08:48:02.187Z,9.97
2019-03-06T08:50:34.737Z,10.80
2019-03-06T08:53:13.621Z,10.37
2019-03-06T08:55:45.298Z,9.97
2019-03-06T08:58:18.781Z,9.43
2019-03-06T09:00:52.709Z,10.87
2019-03-06T09:03:27.569Z,8.90
2019-03-06T09:06:00.467Z,8.80
2019-03-06T09:08:32.363Z,9.23
2019-03-06T09:11:10.025Z,9.67
2019-03-06T09:13:43.055Z,10.10
2019-03-06T09:16:30.684Z,9.93
2019-03-06T09:19:09.829Z,9.67
2019-03-06T09:21:49.319Z,9.97
2019-03-06T09:24:22.672Z,9.37
2019-03-06T09:26:59.669Z,9.60
2019-03-06T09:29:42.248Z,9.00
2019-03-06T09:32:29.084Z,8.67
2019-03-06T09:35:01.880Z,8.77
2019-03-06T09:37:35.373Z,8.83
2019-03-06T09:40:11.879Z,8.13
2019-03-06T09:42:42.191Z,7.07
2019-03-06T09:45:22.001Z,6.67
2019-03-06T09:48:08.880Z,6.90
2019-03-06T09:50:45.416Z,4.77
2019-03-06T09:53:19.165Z,5.73
2019-03-06T09:55:52.718Z,3.83
2019-03-06T09:58:39.169Z,4.50
2019-03-06T10:01:15.512Z,4.03
2019-03-06T10:03:52.214Z,4.20
2019-03-06T10:06:22.501Z,4.37
2019-03-06T10:09:02.174Z,4.40
2019-03-06T10:11:50.552Z,4.10
2019-03-06T10:14:26.099Z,3.87
2019-03-06T10:17:02.881Z,4.40
2019-03-06T10:19:33.248Z,3.83
2019-03-06T10:22:03.555Z,4.17
2019-03-06T10:24:32.275Z,4.17
2019-03-06T10:27:05.741Z,4.23
2019-03-06T10:29:34.734Z,4.33
2019-03-06T10:32:05.357Z,4.50
2019-03-06T10:34:34.710Z,4.23
2019-03-06T10:39:32.338Z,3.57
2019-03-06T10:42:01.226Z,4.13
2019-03-06T10:44:31.711Z,3.30
2019-03-06T10:47:03.450Z,3.57
2019-03-06T10:49:33.322Z,3.33
2019-03-06T10:52:05.580Z,3.50
2019-03-06T10:54:37.897Z,3.03
2019-03-06T10:57:06.188Z,2.87
2019-03-06T10:59:35.282Z,2.97
2019-03-06T11:02:04.254Z,3.17
2019-03-06T11:04:35.032Z,3.43
2019-03-06T11:07:04.819Z,3.07
2019-03-06T11:09:34.019Z,2.87
2019-03-06T11:12:07.097Z,2.90
2019-03-06T11:14:36.210Z,2.83
2019-03-06T11:17:05.172Z,3.03
2019-03-06T11:19:38.418Z,2.87
2019-03-06T11:22:09.164Z,2.77
2019-03-06T11:24:38.098Z,2.47
2019-03-06T11:27:10.113Z,2.90
2019-03-06T11:29:44.277Z,2.60
2019-03-06T11:32:15.431Z,2.83
2019-03-06T11:34:45.006Z,3.03
2019-03-06T11:37:13.718Z,2.57
2019-03-06T11:39:42.380Z,2.47
2019-03-06T11:42:13.617Z,2.33
2019-03-06T11:44:42.581Z,2.50
2019-03-06T11:47:15.878Z,2.53
2019-03-06T11:49:45.008Z,2.60
2019-03-06T11:52:13.723Z,2.70
2019-03-06T11:54:48.122Z,2.30
2019-03-06T11:57:20.772Z,2.47
2019-03-06T11:59:51.031Z,2.70
2019-03-06T12:02:23.299Z,2.83
2019-03-06T12:04:54.605Z,3.10
2019-03-06T12:07:26.297Z,3.00
2019-03-06T12:09:55.013Z,2.90
2019-03-06T12:12:27.181Z,3.10
2019-03-06T12:14:56.077Z,3.10
2019-03-06T12:17:24.794Z,2.50
2019-03-06T12:19:53.743Z,2.60
2019-03-06T12:22:25.727Z,2.80
2019-03-06T12:24:59.960Z,2.67
2019-03-06T12:27:34.672Z,2.40
2019-03-06T12:30:04.872Z,2.70
2019-03-06T12:32:33.693Z,2.77
2019-03-06T12:35:04.990Z,2.33
2019-03-06T12:37:35.660Z,2.47
2019-03-06T12:40:12.359Z,2.77
2019-03-06T12:42:37.945Z,1.90
2019-03-06T12:45:13.596Z,1.40
2019-03-06T12:47:43.334Z,1.83
2019-03-06T12:50:14.816Z,1.40
2019-03-06T12:52:43.532Z,1.10
2019-03-06T12:55:12.987Z,1.00
2019-03-06T12:57:41.699Z,1.07
2019-03-06T13:00:23.023Z,1.17
2019-03-06T13:02:55.215Z,1.20
2019-03-06T13:05:29.021Z,1.00
2019-03-06T13:07:59.598Z,1.10
2019-03-06T13:10:28.861Z,1.10
2019-03-06T13:12:58.155Z,1.40
2019-03-06T13:15:29.206Z,1.33
2019-03-06T13:17:57.716Z,1.67
2019-03-06T13:20:29.697Z,1.30
2019-03-06T13:23:01.274Z,1.53
2019-03-06T13:25:32.947Z,1.10
2019-03-06T13:28:03.310Z,1.90
2019-03-06T13:30:48.360Z,1.27
2019-03-06T13:33:24.716Z,1.30
2019-03-06T13:35:53.697Z,1.20
2019-03-06T13:38:22.814Z,1.17
2019-03-06T13:40:56.170Z,1.00
2019-03-06T13:43:34.305Z,1.30
2019-03-06T13:46:03.580Z,1.13
2019-03-06T13:48:33.481Z,1.30
2019-03-06T13:51:05.768Z,0.93
2019-03-06T13:53:34.479Z,1.10
2019-03-06T13:56:03.279Z,1.30
2019-03-06T13:58:32.031Z,1.30
2019-03-06T14:01:01.481Z,1.33
2019-03-06T14:03:31.343Z,1.60
2019-03-06T14:06:00.803Z,1.93
2019-03-06T14:08:32.774Z,1.67
2019-03-06T14:11:01.417Z,1.40
2019-03-06T14:13:30.115Z,1.40
2019-03-06T14:16:00.800Z,1.40
2019-03-06T14:18:33.213Z,1.37
2019-03-06T14:21:01.388Z,1.23
2019-03-06T14:23:35.226Z,1.40
2019-03-06T14:26:06.823Z,1.70
2019-03-06T14:28:40.042Z,2.00
2019-03-06T14:31:10.782Z,1.50
2019-03-06T14:33:41.962Z,1.87
2019-03-06T14:36:12.444Z,1.80
2019-03-06T14:38:44.687Z,2.60
2019-03-06T14:41:15.726Z,1.70
2019-03-06T14:43:45.822Z,1.90
2019-03-06T14:46:21.372Z,1.70
2019-03-06T14:48:54.086Z,1.43
2019-03-06T14:51:26.347Z,1.83
2019-03-06T14:53:57.942Z,2.10
2019-03-06T14:56:32.358Z,1.80
2019-03-06T14:59:03.720Z,1.70
2019-03-06T15:01:36.614Z,2.03
2019-03-06T15:04:05.589Z,1.77
2019-03-06T15:06:35.554Z,1.77
2019-03-06T15:09:09.050Z,1.90
2019-03-06T15:11:37.938Z,2.43
2019-03-06T15:14:08.776Z,2.30
2019-03-06T15:16:37.614Z,2.13
2019-03-06T15:19:07.320Z,2.30
2019-03-06T15:21:36.672Z,2.50
2019-03-06T15:24:05.932Z,2.37
2019-03-06T15:26:34.760Z,3.17
2019-03-06T15:29:07.815Z,2.80
2019-03-06T15:31:38.690Z,3.57
2019-03-06T15:34:18.025Z,3.37
2019-03-06T15:36:49.656Z,3.70
2019-03-06T15:39:26.849Z,3.83
2019-03-06T15:42:00.249Z,3.50
2019-03-06T15:44:26.299Z,3.90
2019-03-06T15:47:06.100Z,3.73
2019-03-06T15:49:37.567Z,3.73
2019-03-06T15:52:16.604Z,3.87
2019-03-06T15:54:52.653Z,4.07
2019-03-06T15:57:23.950Z,3.90
2019-03-06T15:59:56.724Z,4.07
2019-03-06T16:02:31.348Z,3.47
2019-03-06T16:05:09.231Z,4.07
2019-03-06T16:07:38.298Z,3.90
2019-03-06T16:10:14.799Z,3.30
2019-03-06T16:12:52.994Z,3.23
2019-03-06T16:15:25.782Z,3.50
2019-03-06T16:17:59.431Z,3.60
2019-03-06T16:20:28.395Z,3.40
2019-03-06T16:23:09.222Z,3.70
2019-03-06T16:25:39.891Z,4.17
2019-03-06T16:28:08.488Z,3.60
2019-03-06T16:30:40.807Z,3.47
2019-03-06T16:33:10.628Z,3.47
2019-03-06T16:35:39.617Z,3.53
2019-03-06T16:38:13.371Z,3.33
2019-03-06T16:40:45.257Z,3.23
2019-03-06T16:43:15.432Z,2.93
2019-03-06T16:45:49.079Z,2.50
2019-03-06T16:48:18.162Z,3.47
2019-03-06T16:50:48.876Z,3.00
2019-03-06T16:53:20.701Z,2.60
2019-03-06T16:55:49.638Z,2.83
2019-03-06T16:58:28.570Z,2.30
2019-03-06T17:01:02.883Z,2.30
2019-03-06T17:03:33.279Z,2.30
2019-03-06T17:06:06.301Z,2.60
2019-03-06T17:08:44.285Z,2.03
2019-03-06T17:11:11.986Z,1.80
2019-03-06T17:13:46.797Z,2.00
2019-03-06T17:16:16.711Z,2.30
2019-03-06T17:18:45.752Z,1.90
2019-03-06T17:21:14.926Z,1.93
2019-03-06T17:23:46.883Z,1.80
2019-03-06T17:26:16.714Z,1.70
2019-03-06T17:28:48.583Z,1.77
2019-03-06T17:31:23.482Z,1.67
2019-03-06T17:33:59.687Z,1.43
2019-03-06T17:36:28.451Z,1.60
2019-03-06T17:38:58.973Z,1.90
2019-03-06T17:41:33.602Z,1.60
2019-03-06T17:44:05.272Z,1.60
2019-03-06T17:46:38.362Z,1.43
2019-03-06T17:49:07.687Z,1.20
2019-03-06T17:51:41.308Z,1.80
2019-03-06T17:54:13.731Z,1.50
2019-03-06T17:56:46.772Z,1.57
